createdAt,value
2022-08-27T15:29:24.934Z,27.00
2022-08-27T15:32:30.000Z,27.00
2022-08-27T15:35:33.579Z,26.90
2022-08-27T15:38:36.444Z,26.79
2022-08-27T15:42:05.294Z,26.64
2022-08-27T15:45:06.025Z,26.37
2022-08-27T15:48:09.000Z,26.18
2022-08-27T15:51:13.595Z,26.03
2022-08-27T15:54:16.436Z,25.91
2022-08-27T15:57:20.310Z,25.77
2022-08-27T16:00:25.542Z,25.67
2022-08-27T16:03:35.510Z,25.65
2022-08-27T16:06:39.148Z,25.62
2022-08-27T16:09:42.130Z,25.58
2022-08-27T16:12:45.640Z,25.54
2022-08-27T16:15:50.454Z,25.52
2022-08-27T16:18:53.430Z,25.55
2022-08-27T16:21:56.410Z,25.53
2022-08-27T16:24:59.198Z,25.54
2022-08-27T16:28:02.050Z,25.51
2022-08-27T16:31:06.559Z,25.47
2022-08-27T16:34:17.755Z,25.50
2022-08-27T16:37:20.435Z,25.54
2022-08-27T16:40:23.315Z,25.54
2022-08-27T16:43:28.663Z,25.52
2022-08-27T16:46:32.746Z,25.25
2022-08-27T16:49:52.962Z,24.31
2022-08-27T16:52:56.288Z,23.71
2022-08-27T16:56:00.293Z,23.04
2022-08-27T16:59:03.123Z,22.63
2022-08-27T17:02:13.237Z,22.48
2022-08-27T17:05:34.079Z,22.64
2022-08-27T17:08:42.973Z,22.60
2022-08-27T17:11:55.356Z,22.56
2022-08-27T17:15:00.651Z,22.64
2022-08-27T17:18:05.093Z,22.67
2022-08-27T17:21:07.874Z,22.68
2022-08-27T17:24:12.885Z,22.61
2022-08-27T17:27:17.890Z,22.53
2022-08-27T17:30:21.417Z,22.71
2022-08-27T17:33:29.306Z,22.65
2022-08-27T17:36:33.044Z,22.65
2022-08-27T17:39:35.888Z,22.74
2022-08-27T17:42:40.868Z,22.77
2022-08-27T17:45:43.856Z,22.65
2022-08-27T17:48:48.163Z,22.42
2022-08-27T17:51:55.808Z,22.26
2022-08-27T17:54:59.996Z,22.07
2022-08-27T17:58:03.011Z,22.12
2022-08-27T18:01:06.212Z,22.14
2022-08-27T18:04:15.931Z,21.99
2022-08-27T18:07:19.617Z,21.95
2022-08-27T18:10:25.359Z,21.97
2022-08-27T18:13:29.187Z,21.99
2022-08-27T18:16:32.350Z,22.03
2022-08-27T18:19:37.760Z,22.01
2022-08-27T18:22:43.358Z,22.02
2022-08-27T18:25:51.785Z,21.86
2022-08-27T18:28:56.109Z,21.46
2022-08-27T18:31:59.000Z,21.30
2022-08-27T18:35:10.788Z,21.11
2022-08-27T18:38:14.112Z,21.07
2022-08-27T18:41:17.454Z,21.09
2022-08-27T18:47:23.119Z,20.97
2022-08-27T18:50:28.554Z,20.91
2022-08-27T18:53:34.369Z,20.98
2022-08-27T18:56:37.571Z,20.94
2022-08-27T18:59:40.451Z,20.79
2022-08-27T19:02:45.382Z,20.79
2022-08-27T19:05:54.731Z,20.68
2022-08-27T19:08:58.215Z,20.73
2022-08-27T19:12:00.944Z,20.88
2022-08-27T19:15:04.154Z,20.87
2022-08-27T19:18:09.312Z,20.87
2022-08-27T19:21:14.209Z,20.95
2022-08-27T19:24:17.209Z,20.94
2022-08-27T19:27:25.049Z,21.06
2022-08-27T19:30:28.133Z,21.10
2022-08-27T19:33:34.503Z,21.09
2022-08-27T19:36:42.731Z,21.06
2022-08-27T19:39:46.894Z,21.02
2022-08-27T19:42:50.185Z,21.04
2022-08-27T19:45:53.551Z,21.10
2022-08-27T19:48:58.356Z,20.99
2022-08-27T19:52:06.203Z,20.97
2022-08-27T19:55:14.552Z,20.92
2022-08-27T19:58:19.784Z,20.82
2022-08-27T20:01:22.979Z,20.76
2022-08-27T20:04:29.188Z,20.69
2022-08-27T20:07:37.583Z,20.73
2022-08-27T20:10:40.347Z,20.68
2022-08-27T20:13:50.390Z,20.70
2022-08-27T20:16:53.696Z,20.73
2022-08-27T20:19:59.239Z,20.78
2022-08-27T20:23:07.745Z,20.83
2022-08-27T20:26:10.556Z,20.84
2022-08-27T20:29:14.901Z,20.84
2022-08-27T20:32:29.849Z,20.84
2022-08-27T20:35:34.979Z,20.81
2022-08-27T20:38:40.083Z,20.79
2022-08-27T20:41:42.915Z,20.77
2022-08-27T20:44:47.755Z,20.74
2022-08-27T20:47:52.864Z,20.69
2022-08-27T20:50:56.239Z,20.61
2022-08-27T20:54:01.043Z,20.51
2022-08-27T20:57:04.797Z,20.49
2022-08-27T21:00:22.392Z,20.49
2022-08-27T21:03:25.619Z,20.50
2022-08-27T21:06:32.972Z,20.53
2022-08-27T21:09:55.611Z,20.59
2022-08-27T21:13:04.555Z,20.59
2022-08-27T21:16:08.650Z,20.58
2022-08-27T21:19:11.411Z,20.53
2022-08-27T21:22:14.843Z,20.45
2022-08-27T21:25:19.003Z,20.42
2022-08-27T21:28:21.807Z,20.33
2022-08-27T21:31:25.599Z,20.19
2022-08-27T21:34:30.954Z,20.07
2022-08-27T21:37:33.946Z,19.97
2022-08-27T21:40:38.089Z,19.89
2022-08-27T21:43:41.192Z,19.88
2022-08-27T21:46:44.313Z,19.90
2022-08-27T21:49:47.038Z,19.92
2022-08-27T21:52:50.012Z,19.95
2022-08-27T21:55:54.551Z,20.02
2022-08-27T21:58:57.692Z,20.06
2022-08-27T22:02:01.313Z,20.11
2022-08-27T22:05:04.772Z,20.13
2022-08-27T22:08:08.012Z,20.11
2022-08-27T22:11:13.467Z,20.15
2022-08-27T22:14:16.529Z,20.14
2022-08-27T22:17:19.675Z,20.07
2022-08-27T22:20:23.315Z,20.01
2022-08-27T22:23:28.057Z,19.94
2022-08-27T22:26:32.932Z,19.90
2022-08-27T22:29:35.743Z,19.84
2022-08-27T22:32:38.874Z,19.84
2022-08-27T22:35:42.017Z,19.79
2022-08-27T22:38:45.194Z,19.73
2022-08-27T22:41:51.889Z,19.65
2022-08-27T22:44:55.174Z,19.58
2022-08-27T22:47:58.015Z,19.58
2022-08-27T22:51:01.166Z,19.57
2022-08-27T22:54:04.466Z,19.56
2022-08-27T22:57:10.501Z,19.57
2022-08-27T23:00:17.666Z,19.56
2022-08-27T23:03:20.448Z,19.53
2022-08-27T23:06:23.669Z,19.46
2022-08-27T23:09:26.813Z,19.39
2022-08-27T23:12:30.854Z,19.36
2022-08-27T23:15:34.385Z,19.34
2022-08-27T23:18:38.557Z,19.28
2022-08-27T23:21:41.899Z,19.23
2022-08-27T23:25:03.697Z,19.28
2022-08-27T23:28:12.288Z,19.29
2022-08-27T23:31:17.394Z,19.28
2022-08-27T23:34:21.475Z,19.28
2022-08-27T23:37:25.216Z,19.29
2022-08-27T23:40:28.412Z,19.31
2022-08-27T23:43:32.646Z,19.30
2022-08-27T23:46:36.409Z,19.28
2022-08-27T23:49:40.107Z,19.33
2022-08-27T23:52:43.748Z,19.38
2022-08-27T23:55:46.481Z,19.38
2022-08-27T23:58:50.630Z,19.38
